Buena Vista Township, New Jersey
Current Conditions -  °F | °C
As of 3:54 PM on Saturday 22 Nov 2014 (Local Time) from KMIV Reporting Station
Few Clouds Few Clouds  
Wind Chill: 39°   Ceiling: Unl
Heat Index: 44°   Visibility: 10mi
Dew Point: 19°   Wind: 10mph
Humidity: 37%   Direction: 220°SW
Pressure: 30.33"   Gusts: NA
Location:  39.531°N, 74.8918°W
Report Text: KMIV 222054Z AUTO 22009KT 10SM FEW090 07/M07 A3033 RMK AO2 SLP272 T00671072 56023
Loading
Personal Weather Stations






























Interactive Weather Map New forecast layout! Learn more

10-Day Weather Forecast

Advertisements
Track Severe Weather on mobile